createdAt,value
2018-12-14T00:00:11.792Z,10.77
2018-12-14T00:03:15.123Z,10.73
2018-12-14T00:06:18.507Z,9.73
2018-12-14T00:09:21.858Z,10.10
2018-12-14T00:12:25.262Z,10.80
2018-12-14T00:15:29.339Z,9.27
2018-12-14T00:18:32.671Z,9.47
2018-12-14T00:21:35.971Z,9.90
2018-12-14T00:24:39.372Z,11.07
2018-12-14T00:27:42.669Z,10.03
2018-12-14T00:30:46.042Z,9.53
2018-12-14T00:33:49.453Z,8.90
2018-12-14T00:36:52.821Z,9.68
2018-12-14T00:39:56.165Z,9.60
2018-12-14T00:42:59.554Z,10.27
2018-12-14T00:46:02.933Z,9.07
2018-12-14T00:49:06.306Z,9.83
2018-12-14T00:52:09.670Z,8.80
2018-12-14T00:55:13.051Z,9.47
2018-12-14T00:58:16.700Z,10.00
2018-12-14T01:01:20.041Z,8.70
2018-12-14T01:04:23.366Z,9.17
2018-12-14T01:07:26.720Z,10.63
2018-12-14T01:10:30.040Z,9.70
2018-12-14T01:13:33.363Z,9.63
2018-12-14T01:16:36.878Z,9.75
2018-12-14T01:19:40.417Z,9.70
2018-12-14T01:22:43.800Z,9.00
2018-12-14T01:25:47.186Z,10.00
2018-12-14T01:28:50.501Z,9.13
2018-12-14T01:31:53.948Z,9.80
2018-12-14T01:34:57.253Z,9.77
2018-12-14T01:38:00.574Z,9.37
2018-12-14T01:41:03.946Z,8.50
2018-12-14T01:44:07.326Z,9.07
2018-12-14T01:47:10.664Z,8.57
2018-12-14T01:50:14.093Z,10.00
2018-12-14T01:53:17.398Z,7.87
2018-12-14T01:56:20.707Z,8.83
2018-12-14T01:59:24.090Z,9.77
2018-12-14T02:05:44.242Z,9.40
2018-12-14T02:08:47.549Z,8.67
2018-12-14T02:11:50.885Z,9.17
2018-12-14T02:14:54.338Z,8.93
2018-12-14T02:17:57.646Z,9.80
2018-12-14T02:21:00.974Z,8.77
2018-12-14T02:24:04.311Z,10.13
2018-12-14T02:27:07.673Z,9.17
2018-12-14T02:30:36.658Z,9.93
2018-12-14T02:33:40.026Z,9.23
2018-12-14T02:36:43.322Z,7.37
2018-12-14T02:39:46.637Z,9.07
2018-12-14T02:42:49.949Z,9.43
2018-12-14T02:45:53.292Z,9.53
2018-12-14T02:48:56.614Z,10.30
2018-12-14T02:51:59.993Z,9.03
2018-12-14T02:55:03.524Z,8.47
2018-12-14T02:58:06.942Z,9.50
2018-12-14T03:01:10.309Z,10.33
2018-12-14T03:04:13.611Z,9.70
2018-12-14T03:07:17.004Z,9.77
2018-12-14T03:10:20.444Z,8.70
2018-12-14T03:13:23.778Z,9.48
2018-12-14T03:16:27.110Z,9.73
2018-12-14T03:19:30.509Z,10.60
2018-12-14T03:25:51.273Z,10.30
2018-12-14T03:28:55.279Z,9.33
2018-12-14T03:31:58.882Z,10.03
2018-12-14T03:35:02.297Z,9.50
2018-12-14T03:38:05.612Z,10.27
2018-12-14T03:41:09.101Z,9.13
2018-12-14T03:44:12.413Z,8.80
2018-12-14T03:47:15.786Z,9.33
2018-12-14T03:50:19.193Z,8.53
2018-12-14T03:53:22.509Z,8.93
2018-12-14T03:56:25.861Z,9.33
2018-12-14T03:59:29.182Z,9.93
2018-12-14T04:02:32.578Z,9.67
2018-12-14T04:05:36.241Z,9.17
2018-12-14T04:08:39.559Z,8.37
2018-12-14T04:11:42.932Z,9.63
2018-12-14T04:14:46.245Z,9.17
2018-12-14T04:17:49.591Z,9.30
2018-12-14T04:20:52.943Z,9.13
2018-12-14T04:23:56.259Z,9.87
2018-12-14T04:26:59.570Z,11.10
2018-12-14T04:30:03.342Z,10.50
2018-12-14T04:33:06.691Z,10.27
2018-12-14T04:36:10.054Z,10.10
2018-12-14T04:39:13.464Z,9.97
2018-12-14T04:42:16.758Z,9.27
2018-12-14T04:45:20.279Z,10.87
2018-12-14T04:48:23.660Z,7.83
2018-12-14T04:51:26.985Z,9.73
2018-12-14T04:54:30.294Z,9.20
2018-12-14T04:57:33.610Z,10.80
2018-12-14T05:00:37.024Z,9.80
2018-12-14T05:03:40.422Z,9.13
2018-12-14T05:06:43.786Z,9.05
2018-12-14T05:09:47.164Z,9.80
2018-12-14T05:12:55.982Z,9.17
2018-12-14T05:15:55.986Z,7.67
2018-12-14T05:18:59.311Z,9.20
2018-12-14T05:22:03.165Z,10.35
2018-12-14T05:25:06.508Z,8.33
2018-12-14T05:28:09.838Z,7.57
2018-12-14T05:31:13.208Z,9.30
2018-12-14T05:34:16.563Z,8.37
2018-12-14T05:37:20.044Z,8.30
2018-12-14T05:40:23.373Z,7.20
2018-12-14T05:43:26.681Z,8.00
2018-12-14T05:46:29.998Z,8.43
2018-12-14T05:49:33.305Z,8.63
2018-12-14T05:52:36.638Z,8.93
2018-12-14T05:55:40.166Z,9.27
2018-12-14T05:58:43.511Z,8.77
2018-12-14T06:01:46.849Z,9.73
2018-12-14T06:04:50.163Z,9.57
2018-12-14T06:07:53.494Z,8.53
2018-12-14T06:10:56.847Z,8.40
2018-12-14T06:14:00.249Z,8.87
2018-12-14T06:17:03.601Z,8.10
2018-12-14T06:20:07.221Z,7.53
2018-12-14T06:23:10.554Z,8.50
2018-12-14T06:26:14.013Z,9.23
2018-12-14T06:29:17.389Z,8.43
2018-12-14T06:32:20.752Z,8.53
2018-12-14T06:35:24.154Z,10.50
2018-12-14T06:38:27.455Z,9.67
2018-12-14T06:41:30.852Z,9.15
2018-12-14T06:44:34.241Z,8.80
2018-12-14T06:47:37.595Z,8.70
2018-12-14T06:50:40.981Z,7.67
2018-12-14T06:53:44.317Z,8.37
2018-12-14T06:56:47.681Z,8.70
2018-12-14T06:59:51.081Z,8.13
2018-12-14T07:02:54.438Z,7.70
2018-12-14T07:05:57.749Z,8.70
2018-12-14T07:09:01.099Z,8.27
2018-12-14T07:12:08.101Z,7.50
2018-12-14T07:15:11.627Z,8.57
2018-12-14T07:18:15.001Z,8.00
2018-12-14T07:21:18.527Z,9.40
2018-12-14T07:24:21.931Z,8.47
2018-12-14T07:27:25.325Z,9.00
2018-12-14T07:30:28.726Z,8.80
2018-12-14T07:33:32.129Z,9.50
2018-12-14T07:36:35.529Z,9.60
2018-12-14T07:39:38.905Z,7.77
2018-12-14T07:42:43.021Z,8.23
2018-12-14T07:45:46.430Z,8.10
2018-12-14T07:48:49.825Z,9.50
2018-12-14T07:51:53.170Z,10.80
2018-12-14T07:54:56.520Z,10.03
2018-12-14T07:57:59.941Z,8.65
2018-12-14T08:01:03.261Z,9.10
2018-12-14T08:04:06.590Z,8.60
2018-12-14T08:07:10.210Z,7.57
2018-12-14T08:10:13.730Z,8.17
2018-12-14T08:13:17.096Z,7.33
2018-12-14T08:16:20.406Z,7.30
2018-12-14T08:19:23.796Z,7.00
2018-12-14T08:22:27.332Z,7.33
2018-12-14T08:25:30.726Z,10.50
2018-12-14T08:28:34.131Z,8.70
2018-12-14T08:31:37.635Z,6.60
2018-12-14T08:34:40.970Z,6.80
2018-12-14T08:37:44.276Z,9.10
2018-12-14T08:40:47.613Z,6.70
2018-12-14T08:43:51.027Z,8.03
2018-12-14T08:46:54.421Z,7.20
2018-12-14T08:49:57.822Z,7.10
2018-12-14T08:53:01.177Z,6.73
2018-12-14T08:56:04.875Z,7.50
2018-12-14T08:59:08.191Z,6.37
2018-12-14T09:02:11.525Z,8.30
2018-12-14T09:05:14.925Z,7.27
2018-12-14T09:08:18.424Z,6.67
2018-12-14T09:11:21.840Z,8.07
2018-12-14T09:14:25.236Z,8.40
2018-12-14T09:17:28.567Z,7.63
2018-12-14T09:20:31.996Z,8.03
2018-12-14T09:23:35.297Z,8.30
2018-12-14T09:26:38.641Z,8.20
2018-12-14T09:29:42.021Z,8.70
2018-12-14T09:32:45.381Z,8.27
2018-12-14T09:35:48.821Z,8.77
2018-12-14T09:38:52.462Z,8.70
2018-12-14T09:41:55.884Z,10.50
2018-12-14T09:48:07.950Z,8.85
2018-12-14T09:51:12.472Z,8.17
2018-12-14T09:54:16.107Z,9.60
2018-12-14T09:57:19.898Z,8.70
2018-12-14T10:00:23.294Z,9.80
2018-12-14T10:03:26.628Z,7.47
2018-12-14T10:06:29.985Z,7.97
2018-12-14T10:09:33.318Z,8.50
2018-12-14T10:12:36.787Z,8.30
2018-12-14T10:15:40.180Z,8.03
2018-12-14T10:18:43.826Z,7.00
2018-12-14T10:21:47.201Z,7.87
2018-12-14T10:24:50.594Z,8.67
2018-12-14T10:27:53.942Z,8.00
2018-12-14T10:30:57.279Z,7.87
2018-12-14T10:34:00.598Z,8.23
2018-12-14T10:37:03.999Z,8.15
2018-12-14T10:40:12.002Z,8.53
2018-12-14T10:43:15.409Z,8.33
2018-12-14T10:46:18.803Z,7.07
2018-12-14T10:49:22.202Z,7.63
2018-12-14T10:52:25.564Z,7.77
2018-12-14T10:55:28.902Z,8.20
2018-12-14T10:58:32.210Z,9.17
2018-12-14T11:01:41.127Z,6.87
2018-12-14T11:04:44.521Z,8.13
2018-12-14T11:07:47.921Z,8.35
2018-12-14T11:10:51.320Z,6.57
2018-12-14T11:13:54.626Z,7.93
2018-12-14T11:16:57.985Z,7.83
2018-12-14T11:20:01.303Z,7.17
2018-12-14T11:23:04.842Z,7.40
2018-12-14T11:26:08.153Z,7.03
2018-12-14T11:29:11.530Z,6.97
2018-12-14T11:32:14.926Z,7.15
2018-12-14T11:35:18.323Z,7.00
2018-12-14T11:38:21.629Z,7.30
2018-12-14T11:41:25.152Z,7.27
2018-12-14T11:44:28.453Z,6.97
2018-12-14T11:47:31.761Z,6.93
2018-12-14T11:50:35.107Z,6.77
2018-12-14T11:53:38.453Z,7.27
2018-12-14T11:56:41.884Z,7.27
2018-12-14T11:59:45.265Z,7.57
2018-12-14T12:02:48.597Z,6.43
2018-12-14T12:05:51.926Z,7.37
2018-12-14T12:08:55.320Z,6.77
2018-12-14T12:11:58.709Z,6.93
2018-12-14T12:15:02.071Z,7.17
2018-12-14T12:18:05.514Z,6.70
2018-12-14T12:21:08.920Z,7.43
2018-12-14T12:24:12.278Z,7.23
2018-12-14T12:27:15.616Z,6.10
2018-12-14T12:30:18.963Z,6.57
2018-12-14T12:33:22.309Z,6.40
2018-12-14T12:36:25.714Z,6.33
2018-12-14T12:39:29.027Z,7.20
2018-12-14T12:42:32.366Z,6.47
2018-12-14T12:45:35.801Z,7.33
2018-12-14T12:48:39.559Z,6.70
2018-12-14T12:51:43.072Z,6.33
2018-12-14T12:54:46.433Z,6.13
2018-12-14T12:57:49.771Z,5.57
2018-12-14T13:00:53.126Z,6.63
2018-12-14T13:03:56.574Z,8.53
2018-12-14T13:07:00.010Z,7.50
2018-12-14T13:10:03.493Z,6.93
2018-12-14T13:13:06.989Z,6.35
2018-12-14T13:16:10.303Z,7.53
2018-12-14T13:19:13.641Z,7.03
2018-12-14T13:22:17.123Z,6.80
2018-12-14T13:25:20.578Z,7.50
2018-12-14T13:28:24.186Z,6.70
2018-12-14T13:31:27.484Z,6.63
2018-12-14T13:34:31.021Z,6.83
2018-12-14T13:37:34.442Z,7.10
2018-12-14T13:40:37.759Z,7.23
2018-12-14T13:43:41.273Z,6.83
2018-12-14T13:46:44.735Z,6.87
2018-12-14T13:49:48.147Z,6.57
2018-12-14T13:52:51.625Z,5.73
2018-12-14T13:55:55.022Z,6.70
2018-12-14T13:58:58.341Z,7.57
2018-12-14T14:02:01.641Z,7.87
2018-12-14T14:05:05.550Z,6.03
2018-12-14T14:08:08.854Z,6.10
2018-12-14T14:11:12.165Z,6.20
2018-12-14T14:14:15.534Z,6.43
2018-12-14T14:17:18.938Z,5.63
2018-12-14T14:20:22.450Z,6.20
2018-12-14T14:23:25.939Z,5.87
2018-12-14T14:26:29.321Z,5.97
2018-12-14T14:29:32.653Z,6.27
2018-12-14T14:32:36.032Z,6.62
2018-12-14T14:35:39.469Z,7.30
2018-12-14T14:38:42.782Z,6.47
2018-12-14T14:41:46.135Z,6.47
2018-12-14T14:44:49.525Z,7.33
2018-12-14T14:47:52.839Z,6.70
2018-12-14T14:50:56.220Z,7.23
2018-12-14T14:53:59.533Z,6.17
2018-12-14T14:57:02.874Z,6.25
2018-12-14T15:00:07.293Z,6.83
2018-12-14T15:03:10.683Z,6.80
2018-12-14T15:06:14.132Z,6.87
2018-12-14T15:09:18.827Z,6.80
2018-12-14T15:12:22.278Z,6.83
2018-12-14T15:15:25.680Z,6.60
2018-12-14T15:18:29.031Z,7.72
2018-12-14T15:21:32.343Z,7.20
2018-12-14T15:24:35.687Z,6.90
2018-12-14T15:27:39.083Z,7.87
2018-12-14T15:30:42.409Z,8.07
2018-12-14T15:33:45.721Z,6.57
2018-12-14T15:36:49.079Z,7.50
2018-12-14T15:39:52.475Z,8.57
2018-12-14T15:42:55.819Z,7.80
2018-12-14T15:45:59.137Z,7.77
2018-12-14T15:49:02.570Z,8.37
2018-12-14T15:52:05.918Z,7.67
2018-12-14T15:55:09.338Z,8.00
2018-12-14T15:58:12.681Z,7.60
2018-12-14T16:01:16.066Z,7.60
2018-12-14T16:04:19.476Z,8.30
2018-12-14T16:07:22.865Z,8.63
2018-12-14T16:10:26.252Z,6.97
2018-12-14T16:13:29.627Z,7.20
2018-12-14T16:16:33.245Z,6.77
2018-12-14T16:19:36.673Z,7.67
2018-12-14T16:22:40.184Z,8.10
2018-12-14T16:25:43.586Z,8.30
2018-12-14T16:28:46.977Z,7.30
2018-12-14T16:31:50.318Z,8.57
2018-12-14T16:34:53.632Z,8.67
2018-12-14T16:37:56.971Z,7.97
2018-12-14T16:41:00.376Z,8.20
2018-12-14T16:44:03.686Z,7.77
2018-12-14T16:47:07.064Z,8.25
2018-12-14T16:50:10.472Z,7.60
2018-12-14T16:53:13.813Z,7.30
2018-12-14T16:56:17.187Z,7.00
2018-12-14T16:59:20.589Z,7.37
2018-12-14T17:02:24.009Z,8.63
2018-12-14T17:05:27.327Z,7.17
2018-12-14T17:08:30.637Z,9.30
2018-12-14T17:15:08.270Z,7.37
2018-12-14T17:18:11.585Z,8.20
2018-12-14T17:21:14.925Z,7.60
2018-12-14T17:24:18.278Z,7.73
2018-12-14T17:27:21.609Z,7.97
2018-12-14T17:30:24.983Z,9.00
2018-12-14T17:33:28.329Z,7.87
2018-12-14T17:36:31.693Z,8.13
2018-12-14T17:39:35.073Z,8.73
2018-12-14T17:42:38.481Z,8.40
2018-12-14T17:45:41.886Z,7.67
2018-12-14T17:48:45.181Z,7.93
2018-12-14T17:51:48.725Z,6.93
2018-12-14T17:54:52.068Z,7.90
2018-12-14T17:57:55.478Z,7.13
2018-12-14T18:00:58.910Z,7.70
2018-12-14T18:04:02.331Z,7.90
2018-12-14T18:07:05.783Z,6.57
2018-12-14T18:10:09.312Z,8.77
2018-12-14T18:13:12.702Z,7.50
2018-12-14T18:16:16.648Z,9.00
2018-12-14T18:19:20.658Z,7.50
2018-12-14T18:22:24.346Z,8.43
2018-12-14T18:25:27.825Z,7.43
2018-12-14T18:28:31.226Z,8.43
2018-12-14T18:31:34.731Z,7.87
2018-12-14T18:34:38.009Z,9.20
2018-12-14T18:37:41.418Z,7.33
2018-12-14T18:40:44.816Z,7.87
2018-12-14T18:43:48.165Z,8.35
2018-12-14T18:46:51.480Z,8.73
2018-12-14T18:49:54.786Z,8.67
2018-12-14T18:52:58.125Z,8.17
2018-12-14T18:56:01.534Z,8.83
2018-12-14T18:59:05.111Z,8.63
2018-12-14T19:02:08.526Z,9.37
2018-12-14T19:05:11.833Z,10.07
2018-12-14T19:08:15.220Z,9.13
2018-12-14T19:11:18.531Z,10.30
2018-12-14T19:14:21.834Z,8.87
2018-12-14T19:17:25.166Z,9.75
2018-12-14T19:20:28.493Z,9.10
2018-12-14T19:23:31.859Z,10.60
2018-12-14T19:26:35.161Z,9.80
2018-12-14T19:29:38.498Z,8.03
2018-12-14T19:32:41.813Z,8.63
2018-12-14T19:35:45.248Z,10.27
2018-12-14T19:38:48.557Z,8.37
2018-12-14T19:41:52.214Z,8.20
2018-12-14T19:44:55.601Z,8.23
2018-12-14T19:47:58.986Z,8.20
2018-12-14T19:51:02.517Z,9.40
2018-12-14T19:54:06.076Z,9.37
2018-12-14T19:57:09.525Z,10.37
2018-12-14T20:00:13.244Z,10.03
2018-12-14T20:03:16.566Z,9.70
2018-12-14T20:06:19.941Z,9.13
2018-12-14T20:09:23.242Z,9.47
2018-12-14T20:12:26.628Z,10.20
2018-12-14T20:15:29.966Z,8.90
2018-12-14T20:18:33.321Z,9.40
2018-12-14T20:21:36.682Z,10.63
2018-12-14T20:24:40.001Z,10.00
2018-12-14T20:27:43.349Z,9.57
2018-12-14T20:30:46.750Z,9.83
2018-12-14T20:33:56.116Z,14.18
2018-12-14T20:36:59.469Z,10.30
2018-12-14T20:40:02.866Z,8.83
2018-12-14T20:43:06.184Z,8.90
2018-12-14T20:46:09.493Z,8.50
2018-12-14T20:49:12.909Z,10.70
2018-12-14T20:52:16.402Z,9.97
2018-12-14T20:55:19.856Z,9.97
2018-12-14T20:58:23.225Z,8.80
2018-12-14T21:01:26.729Z,9.87
2018-12-14T21:04:30.110Z,8.97
2018-12-14T21:07:33.519Z,9.73
2018-12-14T21:10:36.903Z,9.57
2018-12-14T21:13:40.246Z,9.73
2018-12-14T21:16:43.597Z,8.40
2018-12-14T21:19:46.926Z,8.23
2018-12-14T21:22:50.300Z,9.17
2018-12-14T21:25:53.646Z,9.93
2018-12-14T21:28:57.177Z,10.10
2018-12-14T21:32:00.656Z,10.43
2018-12-14T21:35:05.369Z,9.20
2018-12-14T21:38:08.673Z,10.07
2018-12-14T21:41:12.023Z,8.48
2018-12-14T21:44:15.325Z,8.93
2018-12-14T21:47:18.676Z,10.73
2018-12-14T21:50:22.012Z,10.30
2018-12-14T21:53:25.386Z,9.50
2018-12-14T21:56:28.764Z,10.57
2018-12-14T21:59:32.124Z,9.90
2018-12-14T22:02:35.441Z,9.80
2018-12-14T22:05:38.774Z,9.73
2018-12-14T22:08:42.125Z,10.43
2018-12-14T22:11:46.498Z,9.60
2018-12-14T22:14:49.833Z,9.53
2018-12-14T22:17:53.174Z,10.00
2018-12-14T22:20:56.472Z,9.53
2018-12-14T22:23:59.931Z,9.87
2018-12-14T22:27:03.294Z,9.53
2018-12-14T22:30:06.986Z,9.47
2018-12-14T22:33:10.394Z,9.47
2018-12-14T22:36:13.769Z,9.53
2018-12-14T22:39:17.113Z,9.10
2018-12-14T22:42:20.417Z,10.23
2018-12-14T22:45:23.785Z,10.60
2018-12-14T22:48:27.231Z,9.60
2018-12-14T22:51:30.539Z,10.07
2018-12-14T22:54:35.158Z,10.60
2018-12-14T22:57:39.461Z,10.83
2018-12-14T23:00:48.397Z,10.13
2018-12-14T23:03:51.906Z,9.30
2018-12-14T23:06:55.245Z,9.93
2018-12-14T23:09:58.600Z,10.37
2018-12-14T23:13:01.971Z,9.77
2018-12-14T23:16:05.306Z,9.43
2018-12-14T23:19:08.726Z,9.97
2018-12-14T23:22:12.037Z,9.17
2018-12-14T23:25:15.441Z,9.87
2018-12-14T23:28:18.807Z,10.40
2018-12-14T23:31:22.188Z,10.47
2018-12-14T23:34:25.502Z,10.27
2018-12-14T23:37:28.803Z,10.67
2018-12-14T23:40:32.092Z,9.70
2018-12-14T23:43:35.445Z,10.17
2018-12-14T23:46:38.772Z,10.67
2018-12-14T23:49:42.876Z,9.20
2018-12-14T23:52:46.589Z,9.03
2018-12-14T23:55:49.906Z,9.23
2018-12-14T23:58:53.240Z,9.98
